sensor_id;sensor_type;location;lat;lon;timestamp;temperature;humidity
54960;DHT22;40860;51.710;8.736;2023-03-01T00:03:36;-1.00;92.60
54960;DHT22;40860;51.710;8.736;2023-03-01T00:07:39;-1.10;92.70
54960;DHT22;40860;51.710;8.736;2023-03-01T00:11:42;-1.20;92.80
54960;DHT22;40860;51.710;8.736;2023-03-01T00:15:47;-1.30;93.10
54960;DHT22;40860;51.710;8.736;2023-03-01T00:19:49;-1.40;93.10
54960;DHT22;40860;51.710;8.736;2023-03-01T00:23:53;-1.50;93.50
54960;DHT22;40860;51.710;8.736;2023-03-01T00:27:56;-1.60;93.80
54960;DHT22;40860;51.710;8.736;2023-03-01T00:32:00;-1.70;94.50
54960;DHT22;40860;51.710;8.736;2023-03-01T00:36:04;-1.70;94.30
54960;DHT22;40860;51.710;8.736;2023-03-01T00:40:08;-1.70;94.90
54960;DHT22;40860;51.710;8.736;2023-03-01T00:44:11;-1.70;95.50
54960;DHT22;40860;51.710;8.736;2023-03-01T00:48:15;-1.70;95.00
54960;DHT22;40860;51.710;8.736;2023-03-01T00:52:18;-1.70;95.50
54960;DHT22;40860;51.710;8.736;2023-03-01T00:56:21;-1.80;95.20
54960;DHT22;40860;51.710;8.736;2023-03-01T01:00:24;-1.90;95.20
54960;DHT22;40860;51.710;8.736;2023-03-01T01:04:31;-2.00;95.30
54960;DHT22;40860;51.710;8.736;2023-03-01T01:08:34;-2.00;95.30
54960;DHT22;40860;51.710;8.736;2023-03-01T01:12:36;-2.10;95.50
54960;DHT22;40860;51.710;8.736;2023-03-01T01:16:39;-2.10;95.90
54960;DHT22;40860;51.710;8.736;2023-03-01T01:20:43;-2.10;95.70
54960;DHT22;40860;51.710;8.736;2023-03-01T01:24:47;-2.20;95.70
54960;DHT22;40860;51.710;8.736;2023-03-01T01:28:50;-2.20;95.80
54960;DHT22;40860;51.710;8.736;2023-03-01T01:32:53;-2.20;96.00
54960;DHT22;40860;51.710;8.736;2023-03-01T01:36:57;-2.30;96.10
54960;DHT22;40860;51.710;8.736;2023-03-01T01:41:05;-2.40;96.20
54960;DHT22;40860;51.710;8.736;2023-03-01T01:45:30;-2.40;96.50
54960;DHT22;40860;51.710;8.736;2023-03-01T01:49:37;-2.50;96.50
54960;DHT22;40860;51.710;8.736;2023-03-01T01:53:43;-2.50;96.60
54960;DHT22;40860;51.710;8.736;2023-03-01T01:57:50;-2.50;96.70
54960;DHT22;40860;51.710;8.736;2023-03-01T02:01:54;-2.50;97.00
54960;DHT22;40860;51.710;8.736;2023-03-01T02:06:01;-2.40;97.80
54960;DHT22;40860;51.710;8.736;2023-03-01T02:10:08;-2.40;97.40
54960;DHT22;40860;51.710;8.736;2023-03-01T02:14:12;-2.30;97.40
54960;DHT22;40860;51.710;8.736;2023-03-01T02:18:18;-2.30;97.40
54960;DHT22;40860;51.710;8.736;2023-03-01T02:22:24;-2.30;97.60
54960;DHT22;40860;51.710;8.736;2023-03-01T02:26:33;-2.20;97.40
54960;DHT22;40860;51.710;8.736;2023-03-01T02:30:40;-2.10;97.20
54960;DHT22;40860;51.710;8.736;2023-03-01T02:35:04;-2.00;96.60
54960;DHT22;40860;51.710;8.736;2023-03-01T02:39:12;-2.10;96.40
54960;DHT22;40860;51.710;8.736;2023-03-01T02:43:19;-2.20;96.40
54960;DHT22;40860;51.710;8.736;2023-03-01T02:47:26;-2.10;96.60
54960;DHT22;40860;51.710;8.736;2023-03-01T02:51:43;-2.10;96.70
54960;DHT22;40860;51.710;8.736;2023-03-01T02:55:48;-2.00;96.60
54960;DHT22;40860;51.710;8.736;2023-03-01T02:59:51;-1.90;96.60
54960;DHT22;40860;51.710;8.736;2023-03-01T03:03:56;-2.00;96.10
54960;DHT22;40860;51.710;8.736;2023-03-01T03:08:02;-2.10;96.00
54960;DHT22;40860;51.710;8.736;2023-03-01T03:12:09;-2.30;96.10
54960;DHT22;40860;51.710;8.736;2023-03-01T03:16:12;-2.40;96.10
54960;DHT22;40860;51.710;8.736;2023-03-01T03:20:18;-2.50;96.70
54960;DHT22;40860;51.710;8.736;2023-03-01T03:24:22;-2.50;96.60
54960;DHT22;40860;51.710;8.736;2023-03-01T03:28:24;-2.60;96.70
54960;DHT22;40860;51.710;8.736;2023-03-01T03:32:27;-2.60;96.80
54960;DHT22;40860;51.710;8.736;2023-03-01T03:36:31;-2.70;97.20
54960;DHT22;40860;51.710;8.736;2023-03-01T03:40:35;-2.70;97.30
54960;DHT22;40860;51.710;8.736;2023-03-01T03:44:38;-2.80;97.90
54960;DHT22;40860;51.710;8.736;2023-03-01T03:48:43;-2.80;97.50
54960;DHT22;40860;51.710;8.736;2023-03-01T03:52:47;-2.90;97.40
54960;DHT22;40860;51.710;8.736;2023-03-01T03:56:53;-3.00;97.60
54960;DHT22;40860;51.710;8.736;2023-03-01T04:00:57;-3.00;97.80
54960;DHT22;40860;51.710;8.736;2023-03-01T04:05:00;-3.00;97.60
54960;DHT22;40860;51.710;8.736;2023-03-01T04:09:04;-3.10;97.60
54960;DHT22;40860;51.710;8.736;2023-03-01T04:13:09;-3.20;97.70
54960;DHT22;40860;51.710;8.736;2023-03-01T04:17:12;-3.30;98.00
54960;DHT22;40860;51.710;8.736;2023-03-01T04:21:15;-3.30;97.90
54960;DHT22;40860;51.710;8.736;2023-03-01T04:25:19;-3.30;98.00
54960;DHT22;40860;51.710;8.736;2023-03-01T04:29:26;-3.30;98.20
54960;DHT22;40860;51.710;8.736;2023-03-01T04:33:28;-3.30;98.00
54960;DHT22;40860;51.710;8.736;2023-03-01T04:37:31;-3.30;98.00
54960;DHT22;40860;51.710;8.736;2023-03-01T04:41:35;-3.40;98.00
54960;DHT22;40860;51.710;8.736;2023-03-01T04:45:39;-3.40;98.00
54960;DHT22;40860;51.710;8.736;2023-03-01T04:49:42;-3.40;98.10
54960;DHT22;40860;51.710;8.736;2023-03-01T04:53:45;-3.50;98.30
54960;DHT22;40860;51.710;8.736;2023-03-01T04:57:49;-3.50;98.50
54960;DHT22;40860;51.710;8.736;2023-03-01T05:01:53;-3.50;98.30
54960;DHT22;40860;51.710;8.736;2023-03-01T05:05:58;-3.50;98.60
54960;DHT22;40860;51.710;8.736;2023-03-01T05:10:02;-3.60;98.70
54960;DHT22;40860;51.710;8.736;2023-03-01T05:14:07;-3.50;98.90
54960;DHT22;40860;51.710;8.736;2023-03-01T05:18:10;-3.50;99.00
54960;DHT22;40860;51.710;8.736;2023-03-01T05:22:13;-3.50;98.50
54960;DHT22;40860;51.710;8.736;2023-03-01T05:26:17;-3.60;98.40
54960;DHT22;40860;51.710;8.736;2023-03-01T05:30:31;-3.70;98.70
54960;DHT22;40860;51.710;8.736;2023-03-01T05:34:35;-3.70;98.70
54960;DHT22;40860;51.710;8.736;2023-03-01T05:38:38;-3.80;98.70
54960;DHT22;40860;51.710;8.736;2023-03-01T05:42:44;-3.80;98.60
54960;DHT22;40860;51.710;8.736;2023-03-01T05:46:48;-3.90;99.00
54960;DHT22;40860;51.710;8.736;2023-03-01T05:50:52;-3.90;99.10
54960;DHT22;40860;51.710;8.736;2023-03-01T05:54:54;-3.90;99.20
54960;DHT22;40860;51.710;8.736;2023-03-01T05:58:57;-3.90;99.30
54960;DHT22;40860;51.710;8.736;2023-03-01T06:03:02;-3.90;99.50
54960;DHT22;40860;51.710;8.736;2023-03-01T06:07:05;-3.80;99.50
54960;DHT22;40860;51.710;8.736;2023-03-01T06:11:08;-3.80;99.50
54960;DHT22;40860;51.710;8.736;2023-03-01T06:15:12;-3.70;99.60
54960;DHT22;40860;51.710;8.736;2023-03-01T06:19:16;-3.60;99.90
54960;DHT22;40860;51.710;8.736;2023-03-01T06:23:19;-3.40;99.70
54960;DHT22;40860;51.710;8.736;2023-03-01T06:27:23;-3.20;99.50
54960;DHT22;40860;51.710;8.736;2023-03-01T06:31:25;-3.20;99.10
54960;DHT22;40860;51.710;8.736;2023-03-01T06:35:30;-3.20;98.70
54960;DHT22;40860;51.710;8.736;2023-03-01T06:39:33;-3.30;98.80
54960;DHT22;40860;51.710;8.736;2023-03-01T06:43:36;-3.30;98.90
54960;DHT22;40860;51.710;8.736;2023-03-01T06:47:38;-3.30;99.10
54960;DHT22;40860;51.710;8.736;2023-03-01T06:51:43;-3.30;99.10
54960;DHT22;40860;51.710;8.736;2023-03-01T06:55:46;-3.30;99.40
54960;DHT22;40860;51.710;8.736;2023-03-01T06:59:48;-3.30;99.50
54960;DHT22;40860;51.710;8.736;2023-03-01T07:03:51;-3.20;99.70
54960;DHT22;40860;51.710;8.736;2023-03-01T07:07:55;-3.00;99.60
54960;DHT22;40860;51.710;8.736;2023-03-01T07:11:58;-2.80;99.50
54960;DHT22;40860;51.710;8.736;2023-03-01T07:16:06;-2.60;99.40
54960;DHT22;40860;51.710;8.736;2023-03-01T07:20:13;-2.50;99.30
54960;DHT22;40860;51.710;8.736;2023-03-01T07:24:18;-2.30;99.50
54960;DHT22;40860;51.710;8.736;2023-03-01T07:28:23;-1.80;98.70
54960;DHT22;40860;51.710;8.736;2023-03-01T07:36:32;-1.20;98.00
54960;DHT22;40860;51.710;8.736;2023-03-01T07:40:37;-1.00;97.80
54960;DHT22;40860;51.710;8.736;2023-03-01T07:44:40;-0.50;96.80
54960;DHT22;40860;51.710;8.736;2023-03-01T07:48:43;-0.50;97.10
54960;DHT22;40860;51.710;8.736;2023-03-01T07:52:46;-0.10;96.40
54960;DHT22;40860;51.710;8.736;2023-03-01T07:56:51;0.40;95.40
54960;DHT22;40860;51.710;8.736;2023-03-01T08:00:53;1.10;94.50
54960;DHT22;40860;51.710;8.736;2023-03-01T08:04:56;1.80;93.10
54960;DHT22;40860;51.710;8.736;2023-03-01T08:08:59;2.40;91.90
54960;DHT22;40860;51.710;8.736;2023-03-01T08:13:07;3.00;89.40
54960;DHT22;40860;51.710;8.736;2023-03-01T08:17:10;3.50;88.10
54960;DHT22;40860;51.710;8.736;2023-03-01T08:21:15;3.80;83.70
54960;DHT22;40860;51.710;8.736;2023-03-01T08:25:18;4.10;82.70
54960;DHT22;40860;51.710;8.736;2023-03-01T08:29:22;4.40;82.00
54960;DHT22;40860;51.710;8.736;2023-03-01T08:33:26;4.70;80.70
54960;DHT22;40860;51.710;8.736;2023-03-01T08:37:29;4.90;79.60
54960;DHT22;40860;51.710;8.736;2023-03-01T08:41:34;4.80;78.10
54960;DHT22;40860;51.710;8.736;2023-03-01T08:45:38;4.60;77.20
54960;DHT22;40860;51.710;8.736;2023-03-01T08:49:41;4.60;77.10
54960;DHT22;40860;51.710;8.736;2023-03-01T08:53:45;4.60;76.60
54960;DHT22;40860;51.710;8.736;2023-03-01T08:57:48;4.80;76.40
54960;DHT22;40860;51.710;8.736;2023-03-01T09:01:52;5.20;75.10
54960;DHT22;40860;51.710;8.736;2023-03-01T09:06:00;5.40;72.50
54960;DHT22;40860;51.710;8.736;2023-03-01T09:10:03;5.40;70.90
54960;DHT22;40860;51.710;8.736;2023-03-01T09:14:06;5.40;68.80
54960;DHT22;40860;51.710;8.736;2023-03-01T09:18:10;5.60;66.60
54960;DHT22;40860;51.710;8.736;2023-03-01T09:22:13;5.60;64.30
54960;DHT22;40860;51.710;8.736;2023-03-01T09:26:18;5.70;63.00
54960;DHT22;40860;51.710;8.736;2023-03-01T09:30:22;6.10;64.10
54960;DHT22;40860;51.710;8.736;2023-03-01T09:34:27;6.20;60.00
54960;DHT22;40860;51.710;8.736;2023-03-01T09:38:30;6.20;58.80
54960;DHT22;40860;51.710;8.736;2023-03-01T09:42:35;6.30;58.70
54960;DHT22;40860;51.710;8.736;2023-03-01T09:46:42;6.70;59.30
54960;DHT22;40860;51.710;8.736;2023-03-01T09:50:47;7.20;58.30
54960;DHT22;40860;51.710;8.736;2023-03-01T09:54:54;7.60;56.90
54960;DHT22;40860;51.710;8.736;2023-03-01T09:59:15;7.50;55.70
54960;DHT22;40860;51.710;8.736;2023-03-01T10:03:25;7.40;55.50
54960;DHT22;40860;51.710;8.736;2023-03-01T10:07:38;7.50;55.90
54960;DHT22;40860;51.710;8.736;2023-03-01T10:11:48;8.00;55.30
54960;DHT22;40860;51.710;8.736;2023-03-01T10:15:55;7.80;54.20
54960;DHT22;40860;51.710;8.736;2023-03-01T10:20:14;7.40;54.50
54960;DHT22;40860;51.710;8.736;2023-03-01T10:24:19;7.30;54.60
54960;DHT22;40860;51.710;8.736;2023-03-01T10:28:27;7.20;55.60
54960;DHT22;40860;51.710;8.736;2023-03-01T10:32:32;6.90;54.70
54960;DHT22;40860;51.710;8.736;2023-03-01T10:36:36;6.60;55.10
54960;DHT22;40860;51.710;8.736;2023-03-01T10:40:53;6.70;56.00
54960;DHT22;40860;51.710;8.736;2023-03-01T10:45:15;6.60;56.00
54960;DHT22;40860;51.710;8.736;2023-03-01T10:49:20;6.90;55.30
54960;DHT22;40860;51.710;8.736;2023-03-01T10:53:26;6.70;54.90
54960;DHT22;40860;51.710;8.736;2023-03-01T10:57:35;6.40;55.50
54960;DHT22;40860;51.710;8.736;2023-03-01T11:01:43;6.70;56.70
54960;DHT22;40860;51.710;8.736;2023-03-01T11:05:52;6.80;55.20
54960;DHT22;40860;51.710;8.736;2023-03-01T11:09:56;6.70;53.80
54960;DHT22;40860;51.710;8.736;2023-03-01T11:14:03;6.60;54.90
54960;DHT22;40860;51.710;8.736;2023-03-01T11:18:26;6.60;54.30
54960;DHT22;40860;51.710;8.736;2023-03-01T11:22:49;6.50;53.00
54960;DHT22;40860;51.710;8.736;2023-03-01T11:26:55;6.60;53.90
54960;DHT22;40860;51.710;8.736;2023-03-01T11:31:02;6.60;53.90
54960;DHT22;40860;51.710;8.736;2023-03-01T11:35:14;6.80;54.40
54960;DHT22;40860;51.710;8.736;2023-03-01T11:39:27;6.80;54.90
54960;DHT22;40860;51.710;8.736;2023-03-01T11:43:36;6.80;55.10
54960;DHT22;40860;51.710;8.736;2023-03-01T11:47:55;6.80;56.10
54960;DHT22;40860;51.710;8.736;2023-03-01T11:52:04;6.70;56.80
54960;DHT22;40860;51.710;8.736;2023-03-01T11:56:19;6.60;56.70
54960;DHT22;40860;51.710;8.736;2023-03-01T12:05:23;6.60;56.10
54960;DHT22;40860;51.710;8.736;2023-03-01T12:09:39;6.70;56.50
54960;DHT22;40860;51.710;8.736;2023-03-01T12:14:03;6.70;55.90
54960;DHT22;40860;51.710;8.736;2023-03-01T12:18:32;6.70;55.30
54960;DHT22;40860;51.710;8.736;2023-03-01T12:22:46;6.70;55.10
54960;DHT22;40860;51.710;8.736;2023-03-01T12:27:07;6.70;54.30
54960;DHT22;40860;51.710;8.736;2023-03-01T12:31:31;6.80;55.00
54960;DHT22;40860;51.710;8.736;2023-03-01T12:35:46;6.70;55.40
54960;DHT22;40860;51.710;8.736;2023-03-01T12:40:13;6.70;55.70
54960;DHT22;40860;51.710;8.736;2023-03-01T12:44:29;6.70;55.40
54960;DHT22;40860;51.710;8.736;2023-03-01T12:48:40;6.80;55.00
54960;DHT22;40860;51.710;8.736;2023-03-01T12:52:49;6.80;54.20
54960;DHT22;40860;51.710;8.736;2023-03-01T12:56:55;6.80;54.20
54960;DHT22;40860;51.710;8.736;2023-03-01T13:01:08;6.80;53.90
54960;DHT22;40860;51.710;8.736;2023-03-01T13:05:24;6.80;53.50
54960;DHT22;40860;51.710;8.736;2023-03-01T13:09:35;6.80;52.80
54960;DHT22;40860;51.710;8.736;2023-03-01T13:13:41;6.80;53.00
54960;DHT22;40860;51.710;8.736;2023-03-01T13:17:45;6.80;52.60
54960;DHT22;40860;51.710;8.736;2023-03-01T13:21:49;6.80;52.50
54960;DHT22;40860;51.710;8.736;2023-03-01T13:26:05;6.90;52.20
54960;DHT22;40860;51.710;8.736;2023-03-01T13:30:43;6.80;52.30
54960;DHT22;40860;51.710;8.736;2023-03-01T13:34:59;6.80;52.30
54960;DHT22;40860;51.710;8.736;2023-03-01T13:39:04;6.80;52.60
54960;DHT22;40860;51.710;8.736;2023-03-01T13:43:28;6.90;53.20
54960;DHT22;40860;51.710;8.736;2023-03-01T13:47:34;6.90;53.40
54960;DHT22;40860;51.710;8.736;2023-03-01T13:51:38;6.90;53.50
54960;DHT22;40860;51.710;8.736;2023-03-01T13:55:42;6.90;53.10
54960;DHT22;40860;51.710;8.736;2023-03-01T13:59:47;6.90;52.90
54960;DHT22;40860;51.710;8.736;2023-03-01T14:03:52;6.90;53.00
54960;DHT22;40860;51.710;8.736;2023-03-01T14:07:55;7.00;53.00
54960;DHT22;40860;51.710;8.736;2023-03-01T14:12:17;7.00;52.80
54960;DHT22;40860;51.710;8.736;2023-03-01T14:16:32;7.10;52.50
54960;DHT22;40860;51.710;8.736;2023-03-01T14:20:42;7.10;52.80
54960;DHT22;40860;51.710;8.736;2023-03-01T14:24:49;7.20;52.10
54960;DHT22;40860;51.710;8.736;2023-03-01T14:28:53;7.20;51.90
54960;DHT22;40860;51.710;8.736;2023-03-01T14:32:58;7.20;52.40
54960;DHT22;40860;51.710;8.736;2023-03-01T14:37:11;7.20;52.30
54960;DHT22;40860;51.710;8.736;2023-03-01T14:41:22;7.20;52.30
54960;DHT22;40860;51.710;8.736;2023-03-01T14:45:27;7.20;52.60
54960;DHT22;40860;51.710;8.736;2023-03-01T14:49:31;7.20;52.90
54960;DHT22;40860;51.710;8.736;2023-03-01T14:53:36;7.20;52.80
54960;DHT22;40860;51.710;8.736;2023-03-01T14:57:51;7.30;53.20
54960;DHT22;40860;51.710;8.736;2023-03-01T15:01:56;7.30;53.10
54960;DHT22;40860;51.710;8.736;2023-03-01T15:06:01;7.40;53.00
54960;DHT22;40860;51.710;8.736;2023-03-01T15:10:11;7.40;53.10
54960;DHT22;40860;51.710;8.736;2023-03-01T15:14:38;7.40;53.40
54960;DHT22;40860;51.710;8.736;2023-03-01T15:18:48;7.30;53.40
54960;DHT22;40860;51.710;8.736;2023-03-01T15:22:51;7.40;53.60
54960;DHT22;40860;51.710;8.736;2023-03-01T15:26:58;7.30;53.40
54960;DHT22;40860;51.710;8.736;2023-03-01T15:31:20;7.20;53.50
54960;DHT22;40860;51.710;8.736;2023-03-01T15:35:39;7.40;54.10
54960;DHT22;40860;51.710;8.736;2023-03-01T15:39:44;7.60;53.40
54960;DHT22;40860;51.710;8.736;2023-03-01T15:43:57;7.70;53.70
54960;DHT22;40860;51.710;8.736;2023-03-01T15:48:02;7.90;53.80
54960;DHT22;40860;51.710;8.736;2023-03-01T15:52:11;8.10;52.90
54960;DHT22;40860;51.710;8.736;2023-03-01T15:56:15;7.90;53.20
54960;DHT22;40860;51.710;8.736;2023-03-01T16:00:20;8.00;53.00
54960;DHT22;40860;51.710;8.736;2023-03-01T16:04:23;8.10;53.80
54960;DHT22;40860;51.710;8.736;2023-03-01T16:08:26;8.40;53.10
54960;DHT22;40860;51.710;8.736;2023-03-01T16:12:28;8.50;52.20
54960;DHT22;40860;51.710;8.736;2023-03-01T16:16:32;8.40;52.60
54960;DHT22;40860;51.710;8.736;2023-03-01T16:20:37;8.10;53.10
54960;DHT22;40860;51.710;8.736;2023-03-01T16:24:40;7.60;53.90
54960;DHT22;40860;51.710;8.736;2023-03-01T16:28:43;7.30;54.90
54960;DHT22;40860;51.710;8.736;2023-03-01T16:32:48;7.00;55.50
54960;DHT22;40860;51.710;8.736;2023-03-01T16:36:51;6.80;56.00
54960;DHT22;40860;51.710;8.736;2023-03-01T16:40:53;6.60;56.50
54960;DHT22;40860;51.710;8.736;2023-03-01T16:44:56;6.40;57.20
54960;DHT22;40860;51.710;8.736;2023-03-01T16:49:00;6.20;57.70
54960;DHT22;40860;51.710;8.736;2023-03-01T16:53:04;6.10;58.20
54960;DHT22;40860;51.710;8.736;2023-03-01T16:57:07;5.90;58.60
54960;DHT22;40860;51.710;8.736;2023-03-01T17:01:14;5.80;58.80
54960;DHT22;40860;51.710;8.736;2023-03-01T17:05:19;5.70;59.00
54960;DHT22;40860;51.710;8.736;2023-03-01T17:09:25;5.50;59.40
54960;DHT22;40860;51.710;8.736;2023-03-01T17:13:27;5.50;59.80
54960;DHT22;40860;51.710;8.736;2023-03-01T17:17:30;5.40;60.30
54960;DHT22;40860;51.710;8.736;2023-03-01T17:21:35;5.20;60.70
54960;DHT22;40860;51.710;8.736;2023-03-01T17:25:41;5.10;61.70
54960;DHT22;40860;51.710;8.736;2023-03-01T17:29:45;5.00;62.00
54960;DHT22;40860;51.710;8.736;2023-03-01T17:33:48;4.90;62.30
54960;DHT22;40860;51.710;8.736;2023-03-01T17:37:54;4.80;62.60
54960;DHT22;40860;51.710;8.736;2023-03-01T17:41:58;4.70;62.90
54960;DHT22;40860;51.710;8.736;2023-03-01T17:46:01;4.70;62.90
54960;DHT22;40860;51.710;8.736;2023-03-01T17:50:04;4.60;63.00
54960;DHT22;40860;51.710;8.736;2023-03-01T17:54:10;4.50;63.30
54960;DHT22;40860;51.710;8.736;2023-03-01T17:58:14;4.50;63.90
54960;DHT22;40860;51.710;8.736;2023-03-01T18:02:18;4.40;64.60
54960;DHT22;40860;51.710;8.736;2023-03-01T18:06:22;4.30;64.80
54960;DHT22;40860;51.710;8.736;2023-03-01T18:10:27;4.20;65.00
54960;DHT22;40860;51.710;8.736;2023-03-01T18:14:30;4.10;65.60
54960;DHT22;40860;51.710;8.736;2023-03-01T18:18:37;4.00;66.10
54960;DHT22;40860;51.710;8.736;2023-03-01T18:22:39;3.90;66.50
54960;DHT22;40860;51.710;8.736;2023-03-01T18:26:44;3.80;66.90
54960;DHT22;40860;51.710;8.736;2023-03-01T18:30:46;3.70;67.30
54960;DHT22;40860;51.710;8.736;2023-03-01T18:34:54;3.70;67.60
54960;DHT22;40860;51.710;8.736;2023-03-01T18:39:00;3.60;67.80
54960;DHT22;40860;51.710;8.736;2023-03-01T18:43:05;3.50;67.90
54960;DHT22;40860;51.710;8.736;2023-03-01T18:47:08;3.50;67.70
54960;DHT22;40860;51.710;8.736;2023-03-01T18:51:13;3.50;67.10
54960;DHT22;40860;51.710;8.736;2023-03-01T18:55:17;3.50;67.00
54960;DHT22;40860;51.710;8.736;2023-03-01T18:59:21;3.40;66.60
54960;DHT22;40860;51.710;8.736;2023-03-01T19:03:25;3.40;66.50
54960;DHT22;40860;51.710;8.736;2023-03-01T19:07:32;3.40;66.30
54960;DHT22;40860;51.710;8.736;2023-03-01T19:11:35;3.30;66.10
54960;DHT22;40860;51.710;8.736;2023-03-01T19:15:39;3.30;66.20
54960;DHT22;40860;51.710;8.736;2023-03-01T19:19:44;3.20;66.60
54960;DHT22;40860;51.710;8.736;2023-03-01T19:23:51;3.10;66.50
54960;DHT22;40860;51.710;8.736;2023-03-01T19:27:57;3.00;66.90
54960;DHT22;40860;51.710;8.736;2023-03-01T19:32:01;3.00;66.90
54960;DHT22;40860;51.710;8.736;2023-03-01T19:36:05;2.90;67.40
54960;DHT22;40860;51.710;8.736;2023-03-01T19:40:18;2.80;68.00
54960;DHT22;40860;51.710;8.736;2023-03-01T19:44:22;2.70;68.90
54960;DHT22;40860;51.710;8.736;2023-03-01T19:48:29;2.50;69.80
54960;DHT22;40860;51.710;8.736;2023-03-01T19:52:32;2.40;70.20
54960;DHT22;40860;51.710;8.736;2023-03-01T19:56:35;2.20;70.70
54960;DHT22;40860;51.710;8.736;2023-03-01T20:00:39;2.00;71.50
54960;DHT22;40860;51.710;8.736;2023-03-01T20:04:47;1.90;71.90
54960;DHT22;40860;51.710;8.736;2023-03-01T20:08:56;1.80;73.30
54960;DHT22;40860;51.710;8.736;2023-03-01T20:13:04;1.70;74.30
54960;DHT22;40860;51.710;8.736;2023-03-01T20:17:08;1.60;75.40
54960;DHT22;40860;51.710;8.736;2023-03-01T20:21:14;1.50;75.80
54960;DHT22;40860;51.710;8.736;2023-03-01T20:25:25;1.40;76.30
54960;DHT22;40860;51.710;8.736;2023-03-01T20:29:28;1.40;77.00
54960;DHT22;40860;51.710;8.736;2023-03-01T20:33:31;1.30;77.50
54960;DHT22;40860;51.710;8.736;2023-03-01T20:37:37;1.20;77.80
54960;DHT22;40860;51.710;8.736;2023-03-01T20:41:42;1.10;78.80
54960;DHT22;40860;51.710;8.736;2023-03-01T20:45:45;1.00;79.60
54960;DHT22;40860;51.710;8.736;2023-03-01T20:49:49;0.80;80.00
54960;DHT22;40860;51.710;8.736;2023-03-01T20:53:54;0.70;81.00
54960;DHT22;40860;51.710;8.736;2023-03-01T20:57:57;0.70;81.30
54960;DHT22;40860;51.710;8.736;2023-03-01T21:02:00;0.70;82.30
54960;DHT22;40860;51.710;8.736;2023-03-01T21:06:04;0.60;83.00
54960;DHT22;40860;51.710;8.736;2023-03-01T21:10:10;0.70;83.20
54960;DHT22;40860;51.710;8.736;2023-03-01T21:14:13;0.80;82.60
54960;DHT22;40860;51.710;8.736;2023-03-01T21:18:16;0.80;82.60
54960;DHT22;40860;51.710;8.736;2023-03-01T21:22:18;0.70;82.80
54960;DHT22;40860;51.710;8.736;2023-03-01T21:26:24;0.60;83.30
54960;DHT22;40860;51.710;8.736;2023-03-01T21:30:27;0.60;83.60
54960;DHT22;40860;51.710;8.736;2023-03-01T21:34:31;0.50;83.90
54960;DHT22;40860;51.710;8.736;2023-03-01T21:38:36;0.40;84.70
54960;DHT22;40860;51.710;8.736;2023-03-01T21:42:40;0.20;85.10
54960;DHT22;40860;51.710;8.736;2023-03-01T21:46:44;0.20;86.00
54960;DHT22;40860;51.710;8.736;2023-03-01T21:50:54;0.20;86.60
54960;DHT22;40860;51.710;8.736;2023-03-01T21:54:57;0.20;86.30
54960;DHT22;40860;51.710;8.736;2023-03-01T21:59:03;0.20;86.70
54960;DHT22;40860;51.710;8.736;2023-03-01T22:03:08;0.20;87.40
54960;DHT22;40860;51.710;8.736;2023-03-01T22:07:12;0.10;87.60
54960;DHT22;40860;51.710;8.736;2023-03-01T22:11:17;0.00;88.20
54960;DHT22;40860;51.710;8.736;2023-03-01T22:15:22;-0.20;88.90
54960;DHT22;40860;51.710;8.736;2023-03-01T22:19:29;-0.20;89.30
54960;DHT22;40860;51.710;8.736;2023-03-01T22:23:37;-0.10;89.10
54960;DHT22;40860;51.710;8.736;2023-03-01T22:27:40;-0.10;89.70
54960;DHT22;40860;51.710;8.736;2023-03-01T22:31:57;-0.10;89.40
54960;DHT22;40860;51.710;8.736;2023-03-01T22:36:03;-0.20;89.90
54960;DHT22;40860;51.710;8.736;2023-03-01T22:40:14;-0.30;90.20
54960;DHT22;40860;51.710;8.736;2023-03-01T22:44:19;-0.30;90.70
54960;DHT22;40860;51.710;8.736;2023-03-01T22:48:25;-0.30;90.80
54960;DHT22;40860;51.710;8.736;2023-03-01T22:52:34;-0.30;90.80
54960;DHT22;40860;51.710;8.736;2023-03-01T22:56:40;-0.20;90.60
54960;DHT22;40860;51.710;8.736;2023-03-01T23:00:44;-0.20;90.40
54960;DHT22;40860;51.710;8.736;2023-03-01T23:04:54;-0.40;90.50
54960;DHT22;40860;51.710;8.736;2023-03-01T23:08:59;-0.40;90.40
54960;DHT22;40860;51.710;8.736;2023-03-01T23:13:02;-0.50;90.60
54960;DHT22;40860;51.710;8.736;2023-03-01T23:17:04;-0.50;90.70
54960;DHT22;40860;51.710;8.736;2023-03-01T23:21:12;-0.60;90.80
54960;DHT22;40860;51.710;8.736;2023-03-01T23:25:15;-0.60;90.90
54960;DHT22;40860;51.710;8.736;2023-03-01T23:29:18;-0.70;91.00
54960;DHT22;40860;51.710;8.736;2023-03-01T23:33:21;-0.70;91.30
54960;DHT22;40860;51.710;8.736;2023-03-01T23:37:29;-0.70;91.40
54960;DHT22;40860;51.710;8.736;2023-03-01T23:41:33;-0.60;91.20
54960;DHT22;40860;51.710;8.736;2023-03-01T23:45:37;-0.60;91.00
54960;DHT22;40860;51.710;8.736;2023-03-01T23:49:43;-0.60;91.00
54960;DHT22;40860;51.710;8.736;2023-03-01T23:53:51;-0.40;90.60
